Manville, Wyoming
Current Conditions -  °F | °C
As of 10:55 PM on Saturday 22 Nov 2014 (Local Time) from KGUR Reporting Station
Overcast Overcast  
Wind Chill: 39°   Ceiling: 4500
Heat Index: 48°   Visibility: 10mi
Dew Point: 36°   Wind: 28mph
Humidity: 64%   Direction: 320°NW
Pressure: 29.61"   Gusts: 36mph
Location:  42.78°N, 104.62°W
Report Text: KGUR 230555Z AUTO 32024G31KT 10SM SCT032 BKN045 OVC050 09/02 A2961 RMK AO2 T00880024 10132 20088 401731046
Loading
Personal Weather Stations






























Interactive Weather Map New forecast layout! Learn more

10-Day Weather Forecast

Advertisements
Track Severe Weather on mobile